Time;durP1;ratioP1;P1;durP2;ratioP2;P2;SDS_P1;SDS_P2;PMS_P1;PMS_P2;Temp;Humidity;BMP_temperature;BMP_pressure;BME280_temperature;BME280_humidity;BME280_pressure;Samples;Min_cycle;Max_cycle;Signal;HPM_P1;HPM_P2
2021/04/27 00:00:55;;;;;;;1.20;1.00;;;9.70;64.40;;;;;;5033036;28;20499;-69
2021/04/27 00:03:23;;;;;;;1.60;1.10;;;9.60;65.30;;;;;;5029167;28;20447;-69
2021/04/27 00:05:50;;;;;;;1.20;1.00;;;9.50;64.70;;;;;;5033068;28;20510;-69
2021/04/27 00:08:16;;;;;;;1.20;1.00;;;9.50;65.60;;;;;;5030705;28;20499;-69
2021/04/27 00:10:43;;;;;;;1.40;1.10;;;9.40;65.20;;;;;;5033012;28;20505;-69
2021/04/27 00:13:10;;;;;;;1.30;1.30;;;9.40;65.30;;;;;;5030265;28;20501;-69
2021/04/27 00:15:36;;;;;;;1.20;1.00;;;9.30;65.80;;;;;;5032817;28;20463;-69
2021/04/27 00:18:03;;;;;;;1.30;1.20;;;9.20;66.60;;;;;;5029166;28;20484;-69
2021/04/27 00:20:30;;;;;;;2.03;1.50;;;9.10;66.00;;;;;;5032615;28;20455;-69
2021/04/27 00:22:57;;;;;;;1.23;1.10;;;9.00;66.30;;;;;;5030393;28;20836;-69
2021/04/27 00:25:25;;;;;;;1.20;1.00;;;9.10;66.60;;;;;;5032872;28;20502;-69
2021/04/27 00:27:54;;;;;;;1.20;1.00;;;9.10;66.70;;;;;;5030004;28;20524;-69
2021/04/27 00:30:23;;;;;;;1.50;1.10;;;9.30;66.30;;;;;;5032259;28;20459;-69
2021/04/27 00:32:50;;;;;;;1.20;1.00;;;9.40;66.00;;;;;;5029949;28;20463;-69
2021/04/27 00:35:18;;;;;;;1.33;1.27;;;9.40;66.20;;;;;;5032514;28;20466;-69
2021/04/27 00:37:45;;;;;;;1.20;1.10;;;9.10;66.60;;;;;;5030224;28;20872;-69
2021/04/27 00:40:15;;;;;;;2.20;1.30;;;9.10;66.90;;;;;;5032367;28;20976;-69
2021/04/27 00:42:46;;;;;;;1.20;1.00;;;9.10;67.10;;;;;;5030057;28;20502;-69
2021/04/27 00:45:15;;;;;;;1.20;1.00;;;9.10;66.70;;;;;;5032366;28;21046;-69
2021/04/27 00:47:41;;;;;;;4.47;1.50;;;9.10;67.00;;;;;;5029911;28;20482;-69
2021/04/27 00:50:14;;;;;;;1.30;1.10;;;9.10;67.60;;;;;;5032041;28;20462;-69
2021/04/27 00:52:43;;;;;;;1.40;1.10;;;9.10;67.90;;;;;;5029866;28;20447;-69
2021/04/27 00:55:14;;;;;;;1.40;1.17;;;9.00;67.40;;;;;;5032167;28;20459;-69
2021/04/27 00:57:41;;;;;;;1.20;0.90;;;8.90;67.70;;;;;;5028675;28;20490;-69
2021/04/27 01:00:10;;;;;;;1.40;1.17;;;8.90;67.90;;;;;;5032120;28;20962;-69
2021/04/27 01:02:36;;;;;;;1.20;1.00;;;8.90;68.00;;;;;;5029729;28;20942;-69
2021/04/27 01:05:13;;;;;;;1.73;1.50;;;8.90;68.10;;;;;;5032027;28;20481;-69
2021/04/27 01:07:45;;;;;;;1.20;1.10;;;8.80;68.90;;;;;;5044030;28;20457;-68
2021/04/27 01:10:21;;;;;;;1.30;1.23;;;8.90;68.10;;;;;;5030835;28;20527;-69
2021/04/27 01:12:54;;;;;;;5.73;1.83;;;8.80;68.70;;;;;;5029242;28;20459;-69
2021/04/27 01:15:24;;;;;;;1.70;1.30;;;8.80;68.90;;;;;;5031669;28;20454;-69
2021/04/27 01:17:52;;;;;;;1.60;1.33;;;8.60;69.70;;;;;;5029327;28;20492;-69
2021/04/27 01:20:23;;;;;;;1.20;1.00;;;8.50;70.10;;;;;;5031798;28;20458;-69
2021/04/27 01:23:03;;;;;;;1.20;1.00;;;8.40;70.60;;;;;;5029244;28;20458;-70
2021/04/27 01:25:44;;;;;;;2.00;1.23;;;8.30;71.80;;;;;;5031575;28;20462;-69
2021/04/27 01:28:12;;;;;;;2.13;1.40;;;7.80;73.10;;;;;;5028863;28;21004;-69
2021/04/27 01:30:42;;;;;;;1.30;1.10;;;7.60;74.30;;;;;;5031398;28;20462;-69
2021/04/27 01:33:11;;;;;;;3.93;1.23;;;7.50;74.70;;;;;;5029071;28;20465;-69
2021/04/27 01:35:38;;;;;;;1.73;1.30;;;7.60;74.60;;;;;;5031385;28;21017;-69
2021/04/27 01:38:06;;;;;;;2.13;1.30;;;7.60;74.70;;;;;;5028795;28;20489;-69
2021/04/27 01:40:33;;;;;;;1.20;1.10;;;7.50;75.20;;;;;;5031243;28;20466;-69
2021/04/27 01:43:00;;;;;;;1.50;1.20;;;7.40;76.70;;;;;;5028617;28;20827;-69
2021/04/27 01:45:29;;;;;;;1.43;1.17;;;7.40;75.80;;;;;;5031273;28;20524;-69
2021/04/27 01:47:56;;;;;;;1.20;1.00;;;7.20;75.80;;;;;;5028998;28;20506;-69
2021/04/27 01:50:24;;;;;;;2.30;1.50;;;7.10;75.80;;;;;;5031093;28;20519;-69
2021/04/27 01:52:51;;;;;;;1.20;1.00;;;7.10;76.60;;;;;;5028633;28;20471;-69
2021/04/27 01:55:22;;;;;;;1.20;1.00;;;6.80;77.90;;;;;;5029822;28;20497;-69
2021/04/27 01:57:49;;;;;;;1.30;1.10;;;6.90;76.70;;;;;;5028602;28;20488;-69
2021/04/27 02:00:18;;;;;;;1.20;1.00;;;6.70;78.50;;;;;;5031469;28;20458;-69
2021/04/27 02:02:46;;;;;;;1.63;1.10;;;6.70;78.40;;;;;;5029988;28;20461;-69
2021/04/27 02:05:14;;;;;;;1.70;1.60;;;6.60;78.40;;;;;;5030965;28;20462;-69
2021/04/27 02:07:41;;;;;;;2.03;1.17;;;6.60;77.90;;;;;;5028597;28;20782;-69
2021/04/27 02:10:10;;;;;;;1.60;1.27;;;6.60;78.80;;;;;;5030672;28;20508;-69
2021/04/27 02:12:40;;;;;;;2.17;1.40;;;6.50;78.70;;;;;;5028671;28;20527;-68
2021/04/27 02:15:09;;;;;;;1.20;1.00;;;6.60;79.40;;;;;;5030658;28;20489;-68
2021/04/27 02:17:41;;;;;;;1.20;1.10;;;6.60;78.50;;;;;;5028562;28;20483;-69
2021/04/27 02:20:09;;;;;;;1.20;1.00;;;6.50;79.60;;;;;;5030740;28;20955;-69
2021/04/27 02:22:36;;;;;;;1.20;1.00;;;6.40;79.70;;;;;;5031857;28;20855;-68
2021/04/27 02:25:05;;;;;;;1.30;1.20;;;6.30;80.60;;;;;;5034769;28;20493;-69
2021/04/27 02:27:35;;;;;;;1.40;1.10;;;6.20;80.50;;;;;;5032496;28;20520;-68
2021/04/27 02:30:03;;;;;;;1.37;1.20;;;6.20;80.60;;;;;;5034677;28;20461;-68
2021/04/27 02:32:34;;;;;;;1.20;1.00;;;6.10;80.30;;;;;;5032188;28;20939;-69
2021/04/27 02:35:01;;;;;;;1.20;1.00;;;6.20;80.50;;;;;;5034448;28;20456;-69
2021/04/27 02:37:28;;;;;;;1.20;1.00;;;6.00;81.70;;;;;;5032366;28;20489;-68
2021/04/27 02:39:55;;;;;;;1.30;1.20;;;5.90;81.50;;;;;;5016798;28;20594;-68
2021/04/27 02:42:22;;;;;;;1.20;0.97;;;6.00;81.90;;;;;;5032273;28;20816;-68
2021/04/27 02:44:50;;;;;;;3.53;1.20;;;6.20;80.40;;;;;;5033074;28;20461;-68
2021/04/27 02:47:17;;;;;;;1.60;1.30;;;6.20;80.70;;;;;;5032451;28;20454;-68
2021/04/27 02:49:44;;;;;;;1.73;1.30;;;6.20;81.00;;;;;;5034299;28;21009;-69
2021/04/27 02:52:10;;;;;;;1.20;1.00;;;6.20;81.10;;;;;;5031976;28;20498;-69
2021/04/27 02:54:37;;;;;;;1.40;1.10;;;6.20;80.70;;;;;;5034143;28;20459;-68
2021/04/27 02:57:04;;;;;;;1.20;1.10;;;6.30;80.80;;;;;;5031638;28;20478;-68
2021/04/27 02:59:31;;;;;;;1.20;0.93;;;6.30;79.50;;;;;;5034138;28;20455;-68
2021/04/27 03:01:57;;;;;;;1.47;1.20;;;6.40;80.00;;;;;;5031546;28;20504;-68
2021/04/27 03:04:25;;;;;;;1.60;1.53;;;6.40;79.40;;;;;;5034112;28;20960;-68
2021/04/27 03:06:52;;;;;;;1.50;1.40;;;6.50;80.70;;;;;;5033247;28;20466;-69
2021/04/27 03:09:18;;;;;;;1.20;0.90;;;6.60;78.60;;;;;;5032654;28;20525;-68
2021/04/27 03:11:46;;;;;;;1.20;1.00;;;6.60;79.20;;;;;;5033675;28;20455;-69
2021/04/27 03:14:13;;;;;;;1.20;1.00;;;6.60;79.70;;;;;;5030999;28;20453;-68
2021/04/27 03:16:40;;;;;;;1.20;1.00;;;6.50;79.50;;;;;;5033556;28;20465;-68
2021/04/27 03:19:07;;;;;;;1.63;1.20;;;6.50;80.80;;;;;;5030181;28;20809;-69
2021/04/27 03:21:34;;;;;;;1.20;0.90;;;6.40;81.10;;;;;;5033552;28;20519;-68
2021/04/27 03:24:00;;;;;;;1.20;1.10;;;6.30;81.00;;;;;;5031273;28;20460;-69
2021/04/27 03:26:27;;;;;;;1.20;1.00;;;6.20;81.70;;;;;;5033464;28;20459;-69
2021/04/27 03:28:54;;;;;;;1.20;1.10;;;6.00;81.50;;;;;;5030881;28;20477;-69
2021/04/27 03:31:21;;;;;;;1.20;0.97;;;6.00;82.40;;;;;;5033399;28;20500;-68
2021/04/27 03:33:48;;;;;;;1.20;1.00;;;6.00;82.20;;;;;;5030437;28;20457;-69
2021/04/27 03:36:15;;;;;;;1.40;1.17;;;6.00;81.70;;;;;;5033317;28;20495;-68
2021/04/27 03:38:42;;;;;;;1.20;1.20;;;5.90;82.10;;;;;;5030900;28;20571;-68
2021/04/27 03:41:08;;;;;;;1.40;1.23;;;5.90;81.70;;;;;;5033391;28;20531;-69
2021/04/27 03:43:35;;;;;;;1.20;1.00;;;5.80;82.30;;;;;;5031205;28;20490;-68
2021/04/27 03:46:02;;;;;;;1.20;1.10;;;5.80;83.00;;;;;;5033115;28;20823;-68
2021/04/27 03:48:29;;;;;;;1.30;1.20;;;5.80;83.20;;;;;;5031090;28;20467;-68
2021/04/27 03:50:55;;;;;;;1.20;1.00;;;5.70;82.80;;;;;;5033141;28;20501;-69
2021/04/27 03:53:22;;;;;;;1.20;1.00;;;5.60;84.00;;;;;;5030809;28;20469;-68
2021/04/27 03:55:48;;;;;;;1.20;0.93;;;5.50;84.50;;;;;;5033215;28;20469;-69
2021/04/27 03:58:15;;;;;;;1.57;1.07;;;5.50;84.10;;;;;;5030644;28;20542;-68
2021/04/27 04:00:42;;;;;;;2.03;1.23;;;5.40;84.20;;;;;;5033187;28;20544;-68
2021/04/27 04:03:09;;;;;;;1.23;1.00;;;5.40;85.10;;;;;;5030658;28;20497;-68
2021/04/27 04:05:36;;;;;;;2.80;1.33;;;5.30;83.90;;;;;;5033290;28;20458;-69
2021/04/27 04:08:02;;;;;;;9.50;1.20;;;5.40;84.90;;;;;;5030615;28;20501;-68
2021/04/27 04:10:29;;;;;;;1.20;1.00;;;5.30;85.10;;;;;;5032922;28;20460;-69
2021/04/27 04:12:55;;;;;;;1.20;1.00;;;5.30;85.20;;;;;;5030598;28;20963;-68
2021/04/27 04:15:22;;;;;;;1.20;1.00;;;5.30;84.40;;;;;;5033038;28;20469;-68
2021/04/27 04:17:49;;;;;;;1.47;1.10;;;5.30;84.90;;;;;;5030332;28;20479;-69
2021/04/27 04:20:20;;;;;;;1.20;1.00;;;5.50;84.70;;;;;;5032614;28;20454;-69
2021/04/27 04:22:47;;;;;;;1.20;1.00;;;5.40;84.80;;;;;;5030358;28;20498;-68
2021/04/27 04:25:16;;;;;;;1.20;0.90;;;5.50;85.10;;;;;;5032499;28;20817;-68
2021/04/27 04:27:42;;;;;;;1.20;1.00;;;5.50;85.60;;;;;;5030173;28;20472;-69
2021/04/27 04:30:12;;;;;;;1.30;1.00;;;5.50;85.00;;;;;;5032241;28;20464;-69
2021/04/27 04:32:38;;;;;;;1.20;1.10;;;5.50;85.20;;;;;;5030417;28;20458;-69
2021/04/27 04:35:06;;;;;;;1.77;1.50;;;5.50;85.00;;;;;;5032356;28;20941;-68
2021/04/27 04:37:33;;;;;;;1.20;1.03;;;5.50;85.70;;;;;;5028909;28;20487;-68
2021/04/27 04:40:00;;;;;;;1.20;0.90;;;5.50;86.80;;;;;;5032033;28;20571;-69
2021/04/27 04:42:26;;;;;;;2.70;1.53;;;5.50;85.70;;;;;;5029682;28;20479;-68
2021/04/27 04:44:53;;;;;;;1.20;0.90;;;5.40;86.00;;;;;;5031894;28;20859;-68
2021/04/27 04:47:20;;;;;;;1.97;1.30;;;5.30;85.90;;;;;;5029650;28;20457;-68
2021/04/27 04:49:46;;;;;;;1.20;1.10;;;5.30;87.00;;;;;;5032052;28;20519;-68
2021/04/27 04:52:13;;;;;;;1.40;1.10;;;5.30;86.10;;;;;;5029028;28;20458;-68
2021/04/27 04:54:40;;;;;;;2.63;2.37;;;5.30;86.10;;;;;;5030585;28;20459;-68
2021/04/27 04:57:07;;;;;;;2.70;1.83;;;5.20;85.90;;;;;;5029440;28;20489;-69
2021/04/27 04:59:33;;;;;;;2.53;1.70;;;5.40;86.40;;;;;;5031955;28;20512;-69
2021/04/27 05:02:00;;;;;;;1.20;0.90;;;5.60;86.40;;;;;;5032073;28;20515;-68
2021/04/27 05:04:26;;;;;;;1.20;1.00;;;5.70;86.50;;;;;;5029456;28;21040;-68
2021/04/27 05:06:58;;;;;;;1.40;1.13;;;5.70;85.90;;;;;;5030647;28;20466;-68
2021/04/27 05:09:24;;;;;;;1.87;1.60;;;5.90;85.90;;;;;;5030438;28;20965;-68
2021/04/27 05:11:54;;;;;;;1.20;1.00;;;5.90;86.00;;;;;;5031908;28;20466;-69
2021/04/27 05:14:20;;;;;;;1.20;1.00;;;6.00;85.60;;;;;;5030591;28;20493;-68
2021/04/27 05:16:47;;;;;;;1.20;1.00;;;6.10;85.40;;;;;;5031923;28;20497;-68
2021/04/27 05:19:13;;;;;;;1.20;1.00;;;6.30;85.10;;;;;;5029075;28;20516;-68
2021/04/27 05:21:41;;;;;;;1.20;0.90;;;6.40;85.90;;;;;;5031538;28;20471;-68
2021/04/27 05:24:08;;;;;;;1.20;1.00;;;6.40;85.60;;;;;;5029248;28;21146;-68
2021/04/27 05:26:34;;;;;;;1.30;1.10;;;6.50;85.60;;;;;;5031528;28;20513;-68
2021/04/27 05:29:02;;;;;;;1.20;1.07;;;6.70;83.90;;;;;;5029029;28;20839;-69
2021/04/27 05:31:29;;;;;;;1.20;1.10;;;6.70;83.60;;;;;;5031471;28;20459;-68
2021/04/27 05:33:55;;;;;;;1.20;0.90;;;6.80;84.70;;;;;;5028844;28;20507;-68
2021/04/27 05:36:23;;;;;;;1.40;1.20;;;7.00;83.40;;;;;;5031229;28;20884;-69
2021/04/27 05:38:49;;;;;;;1.20;1.00;;;6.90;83.90;;;;;;5028974;28;20484;-68
2021/04/27 05:41:16;;;;;;;1.20;1.10;;;6.80;84.20;;;;;;5030053;28;20467;-69
2021/04/27 05:43:42;;;;;;;1.20;1.10;;;6.80;84.40;;;;;;5028842;28;21037;-68
2021/04/27 05:46:10;;;;;;;1.20;1.00;;;6.70;84.90;;;;;;5030009;28;20459;-69
2021/04/27 05:48:36;;;;;;;1.63;1.50;;;6.80;84.80;;;;;;5028590;28;20551;-69
2021/04/27 05:51:03;;;;;;;1.30;1.20;;;7.00;85.00;;;;;;5031163;28;20454;-68
2021/04/27 05:53:29;;;;;;;1.20;1.00;;;7.10;83.00;;;;;;5028698;28;20491;-69
2021/04/27 05:55:56;;;;;;;1.43;1.20;;;7.10;82.80;;;;;;5030645;28;20489;-69
2021/04/27 05:58:22;;;;;;;1.20;1.03;;;7.10;81.60;;;;;;5028933;28;20658;-68
2021/04/27 06:00:49;;;;;;;1.20;1.13;;;7.30;81.90;;;;;;5030981;28;20457;-68
2021/04/27 06:03:16;;;;;;;1.43;1.30;;;7.30;81.20;;;;;;5028514;28;20957;-68
2021/04/27 06:05:42;;;;;;;1.40;1.20;;;7.40;79.90;;;;;;5030903;28;20488;-67
2021/04/27 06:08:09;;;;;;;1.83;1.10;;;7.40;80.30;;;;;;5028885;28;20505;-67
2021/04/27 06:10:35;;;;;;;1.20;1.00;;;7.30;79.70;;;;;;5031847;28;20873;-68
2021/04/27 06:13:02;;;;;;;1.83;1.40;;;7.40;80.00;;;;;;5028623;28;20458;-67
2021/04/27 06:15:28;;;;;;;1.20;1.00;;;7.60;78.50;;;;;;5030432;28;20492;-67
2021/04/27 06:17:55;;;;;;;1.50;1.40;;;7.70;78.00;;;;;;5028249;28;20844;-67
2021/04/27 06:20:22;;;;;;;1.73;1.10;;;7.80;79.40;;;;;;5030726;28;20505;-67
2021/04/27 06:22:49;;;;;;;1.53;1.20;;;7.90;78.20;;;;;;5028495;28;20453;-67
2021/04/27 06:25:15;;;;;;;1.20;1.13;;;8.00;78.20;;;;;;5030846;28;20542;-67
2021/04/27 06:27:42;;;;;;;1.20;1.03;;;7.90;77.80;;;;;;5027912;28;20816;-67
2021/04/27 06:30:12;;;;;;;1.20;1.10;;;8.00;78.20;;;;;;5030572;28;20452;-67
2021/04/27 06:32:38;;;;;;;2.07;1.40;;;8.00;78.30;;;;;;5027905;28;20811;-67
2021/04/27 06:35:05;;;;;;;1.70;1.37;;;8.10;78.00;;;;;;5030541;28;20478;-67
2021/04/27 06:37:33;;;;;;;1.20;1.10;;;8.30;77.40;;;;;;5027916;28;20480;-67
2021/04/27 06:39:59;;;;;;;1.20;1.00;;;8.40;78.00;;;;;;5030450;28;20489;-67
2021/04/27 06:42:26;;;;;;;1.57;1.33;;;8.60;76.90;;;;;;5027752;28;20582;-67
2021/04/27 06:44:52;;;;;;;1.20;1.10;;;8.70;77.30;;;;;;5030281;28;20453;-66
2021/04/27 06:47:19;;;;;;;1.30;1.10;;;8.80;77.00;;;;;;5027594;28;20458;-66
2021/04/27 06:49:46;;;;;;;1.20;1.00;;;8.70;76.10;;;;;;5030259;28;20462;-67
2021/04/27 06:52:12;;;;;;;3.23;3.10;;;8.60;75.90;;;;;;5030376;28;20992;-67
2021/04/27 06:54:39;;;;;;;3.30;1.87;;;8.60;77.30;;;;;;5026505;28;20485;-67
2021/04/27 06:57:06;;;;;;;1.30;1.20;;;8.80;75.90;;;;;;5030243;28;20655;-67
2021/04/27 06:59:33;;;;;;;1.20;1.00;;;8.70;76.30;;;;;;5027762;28;20497;-68
2021/04/27 07:02:02;;;;;;;3.33;1.80;;;8.90;76.90;;;;;;5030392;28;20949;-67
2021/04/27 07:04:29;;;;;;;1.20;1.07;;;9.10;75.80;;;;;;5027836;28;20524;-67
2021/04/27 07:06:57;;;;;;;1.87;1.30;;;9.30;76.70;;;;;;5030247;28;20463;-68
2021/04/27 07:09:23;;;;;;;1.50;1.40;;;9.50;76.00;;;;;;5030121;28;20528;-67
2021/04/27 07:11:51;;;;;;;1.40;1.17;;;9.60;75.50;;;;;;5033792;28;20463;-68
2021/04/27 07:14:17;;;;;;;1.20;1.00;;;9.80;75.00;;;;;;5031593;28;20459;-67
2021/04/27 07:16:44;;;;;;;3.67;1.33;;;9.90;75.30;;;;;;5033855;28;20520;-67
2021/04/27 07:19:10;;;;;;;1.40;1.20;;;9.80;75.10;;;;;;5031092;28;20494;-68
2021/04/27 07:21:39;;;;;;;1.20;1.00;;;9.80;74.90;;;;;;5033445;28;20459;-68
2021/04/27 07:24:08;;;;;;;1.20;0.90;;;9.90;75.60;;;;;;5031381;28;20513;-67
2021/04/27 07:26:36;;;;;;;1.20;1.13;;;10.00;74.60;;;;;;5032255;28;20455;-68
2021/04/27 07:29:04;;;;;;;1.20;1.17;;;10.00;75.00;;;;;;5031356;28;20898;-67
2021/04/27 07:31:31;;;;;;;1.40;1.30;;;10.10;75.10;;;;;;5032185;28;20455;-67
2021/04/27 07:34:00;;;;;;;1.20;1.00;;;10.20;75.70;;;;;;5030568;28;20458;-66
2021/04/27 07:36:27;;;;;;;1.40;1.20;;;10.30;74.70;;;;;;5032918;28;20498;-65
2021/04/27 07:38:53;;;;;;;1.70;1.30;;;10.50;74.10;;;;;;5030435;28;20989;-66
2021/04/27 07:41:20;;;;;;;1.40;1.13;;;10.70;73.80;;;;;;5032994;28;20469;-67
2021/04/27 07:43:47;;;;;;;2.23;1.77;;;11.00;73.10;;;;;;5029256;28;20960;-69
2021/04/27 07:46:14;;;;;;;1.40;1.10;;;11.20;72.00;;;;;;5032583;28;20470;-69
2021/04/27 07:48:40;;;;;;;1.30;1.20;;;11.20;72.10;;;;;;5030334;28;20775;-69
2021/04/27 07:51:07;;;;;;;1.20;1.20;;;11.30;71.60;;;;;;5032581;28;20465;-69
2021/04/27 07:53:33;;;;;;;1.20;1.07;;;11.30;70.70;;;;;;5030217;28;20455;-69
2021/04/27 07:56:00;;;;;;;2.70;1.30;;;11.40;71.60;;;;;;5032586;28;20458;-69
2021/04/27 07:58:27;;;;;;;1.90;1.50;;;11.50;71.10;;;;;;5028560;28;20486;-69
2021/04/27 08:00:53;;;;;;;1.63;1.37;;;11.60;71.70;;;;;;5031424;28;20524;-69
2021/04/27 08:03:21;;;;;;;1.20;1.10;;;11.80;70.70;;;;;;5029771;28;20549;-69
2021/04/27 08:05:48;;;;;;;1.37;1.10;;;11.80;70.20;;;;;;5031115;28;20473;-69
2021/04/27 08:08:14;;;;;;;1.30;1.20;;;12.00;70.50;;;;;;5029737;28;20822;-69
2021/04/27 08:10:41;;;;;;;1.20;1.10;;;12.10;70.40;;;;;;5032362;28;20490;-69
2021/04/27 08:13:08;;;;;;;1.47;1.20;;;12.10;70.30;;;;;;5029695;28;20463;-69
2021/04/27 08:15:35;;;;;;;1.67;1.27;;;12.20;69.90;;;;;;5032285;28;20470;-69
2021/04/27 08:18:02;;;;;;;2.50;1.37;;;12.30;70.10;;;;;;5030301;28;20904;-69
2021/04/27 08:20:33;;;;;;;1.30;1.27;;;12.40;70.30;;;;;;5031960;28;21005;-69
2021/04/27 08:23:00;;;;;;;2.83;1.80;;;12.50;69.70;;;;;;5028624;28;20461;-67
2021/04/27 08:25:28;;;;;;;1.97;1.67;;;12.60;70.80;;;;;;5032183;28;20460;-67
2021/04/27 08:27:55;;;;;;;1.70;1.60;;;12.90;71.50;;;;;;5028942;28;20522;-69
2021/04/27 08:30:24;;;;;;;2.50;1.57;;;13.30;69.30;;;;;;5032008;28;20460;-69
2021/04/27 08:32:52;;;;;;;1.30;1.00;;;13.20;67.80;;;;;;5028216;28;21105;-69
2021/04/27 08:35:19;;;;;;;1.30;1.10;;;13.10;68.30;;;;;;5031979;28;20499;-69
2021/04/27 08:37:46;;;;;;;1.83;1.30;;;13.20;67.40;;;;;;5029073;28;21181;-69
2021/04/27 08:40:15;;;;;;;1.20;1.00;;;13.30;68.20;;;;;;5031872;28;20465;-69
2021/04/27 08:42:42;;;;;;;1.30;1.20;;;13.30;68.80;;;;;;5028982;28;20993;-69
2021/04/27 08:45:10;;;;;;;1.20;1.10;;;13.40;66.80;;;;;;5031682;28;21034;-69
2021/04/27 08:47:38;;;;;;;1.40;1.20;;;13.50;68.30;;;;;;5029068;28;20817;-70
2021/04/27 08:50:08;;;;;;;2.13;1.50;;;13.70;66.60;;;;;;5031494;28;20454;-69
2021/04/27 08:52:34;;;;;;;1.63;1.40;;;13.80;67.10;;;;;;5028979;28;20454;-69
2021/04/27 08:55:03;;;;;;;2.80;2.27;;;14.00;67.30;;;;;;5031599;28;20477;-69
2021/04/27 08:57:29;;;;;;;4.63;2.17;;;14.10;66.20;;;;;;5029272;28;20472;-70
2021/04/27 08:59:56;;;;;;;1.30;1.20;;;14.10;66.00;;;;;;5031883;28;20983;-69
2021/04/27 09:02:30;;;;;;;1.30;1.20;;;14.10;65.60;;;;;;5031700;28;20803;-69
2021/04/27 09:04:57;;;;;;;1.50;1.40;;;14.30;65.60;;;;;;5031503;28;20466;-70
2021/04/27 09:07:27;;;;;;;2.63;1.80;;;14.40;64.50;;;;;;5030987;28;20513;-69
2021/04/27 09:09:56;;;;;;;2.17;1.77;;;14.40;65.40;;;;;;5030349;28;20505;-69
2021/04/27 09:12:28;;;;;;;2.67;1.37;;;14.60;64.80;;;;;;5031309;28;20516;-69
2021/04/27 09:14:56;;;;;;;2.17;1.20;;;14.70;66.20;;;;;;5028869;28;20458;-69
2021/04/27 09:17:25;;;;;;;2.30;1.73;;;14.70;64.40;;;;;;5029459;28;20862;-69
2021/04/27 09:19:53;;;;;;;1.70;1.43;;;14.90;64.60;;;;;;5028361;28;20470;-69
2021/04/27 09:22:22;;;;;;;1.97;1.20;;;15.00;65.50;;;;;;5030616;28;20521;-70
2021/04/27 09:24:50;;;;;;;1.77;1.70;;;15.30;65.50;;;;;;5029364;28;20481;-69
2021/04/27 09:27:29;;;;;;;1.63;1.40;;;15.50;63.80;;;;;;5030903;28;20539;-69
2021/04/27 09:29:58;;;;;;;1.60;1.30;;;15.50;63.70;;;;;;5029619;28;20541;-70
2021/04/27 09:32:36;;;;;;;2.23;1.70;;;15.60;62.30;;;;;;5030188;28;20462;-67
2021/04/27 09:35:31;;;;;;;3.63;1.77;;;15.60;64.80;;;;;;5030856;28;20454;-68
2021/04/27 09:38:17;;;;;;;2.13;1.30;;;15.80;64.10;;;;;;5028423;28;20521;-68
2021/04/27 09:40:52;;;;;;;2.70;1.77;;;15.90;64.10;;;;;;5030587;28;20465;-69
2021/04/27 09:43:21;;;;;;;1.33;1.27;;;16.00;63.20;;;;;;5028265;28;20459;-68
2021/04/27 09:45:49;;;;;;;2.50;1.93;;;16.00;63.20;;;;;;5030555;28;20519;-69
2021/04/27 09:48:30;;;;;;;1.93;1.30;;;16.10;62.90;;;;;;5028411;28;20542;-69
2021/04/27 09:51:03;;;;;;;3.93;2.07;;;16.20;63.50;;;;;;5030799;28;20454;-68
2021/04/27 09:53:39;;;;;;;1.50;1.30;;;16.20;62.50;;;;;;5028451;28;20961;-70
2021/04/27 09:56:06;;;;;;;1.60;1.33;;;16.40;63.10;;;;;;5030295;28;21032;-70
2021/04/27 09:58:37;;;;;;;2.10;1.73;;;16.50;61.30;;;;;;5027633;28;20494;-70
2021/04/27 10:01:05;;;;;;;1.67;1.33;;;16.70;62.30;;;;;;5029097;28;20466;-68
2021/04/27 10:03:33;;;;;;;2.23;1.50;;;16.90;61.30;;;;;;5027824;28;20454;-70
2021/04/27 10:06:00;;;;;;;2.03;1.93;;;17.00;59.90;;;;;;5030410;28;20462;-70
2021/04/27 10:08:27;;;;;;;3.20;2.00;;;17.10;61.60;;;;;;5028275;28;20451;-70
2021/04/27 10:10:55;;;;;;;3.03;1.63;;;17.20;60.00;;;;;;5029015;28;20545;-69
2021/04/27 10:13:23;;;;;;;1.80;1.70;;;17.30;60.00;;;;;;5027892;28;20462;-70
2021/04/27 10:15:51;;;;;;;1.50;1.33;;;17.40;59.30;;;;;;5030261;28;20463;-70
2021/04/27 10:18:17;;;;;;;2.07;1.80;;;17.40;59.60;;;;;;5029184;28;20490;-70
2021/04/27 10:20:44;;;;;;;1.90;1.40;;;17.50;59.70;;;;;;5031178;28;20509;-70
2021/04/27 10:23:11;;;;;;;3.00;1.53;;;17.50;60.70;;;;;;5027163;28;20541;-70
2021/04/27 10:25:39;;;;;;;1.70;1.40;;;17.70;58.70;;;;;;5032079;28;20458;-69
2021/04/27 10:28:07;;;;;;;2.27;1.60;;;17.70;58.40;;;;;;5028243;28;20471;-70
2021/04/27 10:30:38;;;;;;;1.80;1.60;;;17.70;58.60;;;;;;5030242;28;20505;-70
2021/04/27 10:33:14;;;;;;;2.00;1.53;;;17.90;59.40;;;;;;5027784;28;20461;-70
2021/04/27 10:35:43;;;;;;;2.80;1.50;;;17.80;57.70;;;;;;5030350;28;20548;-69
2021/04/27 10:38:11;;;;;;;2.07;1.67;;;17.80;57.70;;;;;;5027769;28;20520;-69
2021/04/27 10:40:46;;;;;;;1.37;1.30;;;17.90;59.70;;;;;;5030115;28;21019;-70
2021/04/27 10:43:35;;;;;;;2.50;1.97;;;18.10;60.10;;;;;;5030065;28;20457;-69
2021/04/27 10:46:05;;;;;;;3.87;1.87;;;18.20;59.50;;;;;;5034310;28;20462;-69
2021/04/27 10:48:33;;;;;;;1.87;1.63;;;18.30;58.90;;;;;;5031084;28;20474;-69
2021/04/27 10:51:36;;;;;;;1.90;1.40;;;18.40;60.40;;;;;;5033995;28;20482;-69
2021/04/27 10:54:07;;;;;;;1.40;1.30;;;18.60;59.30;;;;;;5031478;28;20898;-68
2021/04/27 10:56:36;;;;;;;2.37;1.70;;;18.80;57.60;;;;;;5033857;28;20976;-69
2021/04/27 10:59:08;;;;;;;3.33;1.53;;;18.90;59.20;;;;;;5031158;28;20489;-66
2021/04/27 11:01:36;;;;;;;3.17;1.83;;;19.00;57.20;;;;;;5034055;28;20466;-68
2021/04/27 11:04:04;;;;;;;2.13;1.40;;;18.90;56.70;;;;;;5031356;28;20886;-68
2021/04/27 11:06:31;;;;;;;2.50;1.47;;;19.00;57.90;;;;;;5033953;28;20486;-68
2021/04/27 11:09:10;;;;;;;1.50;1.40;;;19.10;58.00;;;;;;5031752;28;20524;-74
2021/04/27 11:11:37;;;;;;;4.57;2.57;;;19.30;57.70;;;;;;5035464;28;20545;-68
2021/04/27 11:14:21;;;;;;;2.77;1.60;;;19.60;57.60;;;;;;5032607;28;20463;-69
2021/04/27 11:16:53;;;;;;;4.17;2.03;;;19.80;55.00;;;;;;5035407;28;20464;-68
2021/04/27 11:19:43;;;;;;;2.50;1.57;;;20.00;54.40;;;;;;5030482;28;20577;-69
2021/04/27 11:22:19;;;;;;;3.20;1.80;;;20.10;54.10;;;;;;5033650;28;20466;-70
2021/04/27 11:24:46;;;;;;;1.63;1.63;;;20.50;54.80;;;;;;5030956;28;20516;-70
2021/04/27 11:27:29;;;;;;;2.33;1.60;;;20.60;55.10;;;;;;5033329;28;20512;-70
2021/04/27 11:30:01;;;;;;;5.20;1.83;;;20.70;54.40;;;;;;5029673;28;20481;-68
2021/04/27 11:32:30;;;;;;;2.60;1.90;;;20.80;53.60;;;;;;5033343;28;20504;-69
2021/04/27 11:35:19;;;;;;;2.87;1.83;;;20.70;52.60;;;;;;5031444;28;20459;-70
2021/04/27 11:37:48;;;;;;;2.77;1.90;;;20.60;53.40;;;;;;5026178;28;20492;-70
2021/04/27 11:40:22;;;;;;;4.17;2.03;;;20.40;53.10;;;;;;5033257;28;20501;-70
2021/04/27 11:42:55;;;;;;;3.63;1.60;;;20.70;52.60;;;;;;5030435;28;20494;-70
2021/04/27 11:45:22;;;;;;;2.33;1.50;;;21.10;53.30;;;;;;5033017;28;20541;-69
2021/04/27 11:47:50;;;;;;;2.33;1.73;;;21.20;52.90;;;;;;5030285;28;20454;-70
2021/04/27 11:50:20;;;;;;;2.30;1.77;;;21.40;53.60;;;;;;5033089;28;20454;-68
2021/04/27 11:52:50;;;;;;;1.80;1.37;;;21.40;53.40;;;;;;5031119;28;20530;-71
2021/04/27 11:55:26;;;;;;;2.53;2.30;;;21.30;52.80;;;;;;5032368;28;20462;-69
2021/04/27 11:57:56;;;;;;;1.93;1.77;;;21.50;53.40;;;;;;5030060;28;20482;-70
2021/04/27 12:00:40;;;;;;;2.47;1.53;;;21.50;54.90;;;;;;5032879;28;20809;-69
2021/04/27 12:03:18;;;;;;;1.80;1.60;;;21.50;54.70;;;;;;5030278;28;20462;-70
2021/04/27 12:05:46;;;;;;;2.50;1.53;;;21.50;52.90;;;;;;5032651;28;20490;-70
2021/04/27 12:08:22;;;;;;;2.03;1.57;;;21.50;50.00;;;;;;5029884;28;20454;-69
2021/04/27 12:10:49;;;;;;;2.43;1.60;;;21.40;52.30;;;;;;5033000;28;20458;-69
2021/04/27 12:13:21;;;;;;;1.90;1.30;;;21.50;51.70;;;;;;5029873;28;20450;-68
2021/04/27 12:16:05;;;;;;;3.63;2.00;;;21.40;52.00;;;;;;5032473;28;20547;-67
2021/04/27 12:18:32;;;;;;;1.70;1.53;;;21.30;52.30;;;;;;5029521;28;20906;-68
2021/04/27 12:21:00;;;;;;;2.53;1.83;;;21.20;52.00;;;;;;5032545;28;20454;-69
2021/04/27 12:23:27;;;;;;;2.73;1.87;;;21.10;50.50;;;;;;5029626;28;20968;-69
2021/04/27 12:25:57;;;;;;;3.07;2.20;;;21.00;51.80;;;;;;5032558;28;20454;-69
2021/04/27 12:28:23;;;;;;;3.63;2.17;;;21.00;52.60;;;;;;5029424;28;20493;-70
2021/04/27 12:30:51;;;;;;;2.40;1.70;;;21.20;52.20;;;;;;5031001;28;20509;-70
2021/04/27 12:33:22;;;;;;;4.37;2.40;;;21.30;53.00;;;;;;5029921;28;21015;-70
2021/04/27 12:35:52;;;;;;;2.37;1.87;;;21.20;50.60;;;;;;5032270;28;20735;-71
2021/04/27 12:38:20;;;;;;;2.50;1.63;;;21.30;49.90;;;;;;5029770;28;20861;-71
2021/04/27 12:40:51;;;;;;;3.70;2.07;;;21.50;48.70;;;;;;5032296;28;20465;-71
2021/04/27 12:43:28;;;;;;;12.00;2.13;;;21.70;49.50;;;;;;5029700;28;20458;-71
2021/04/27 12:45:59;;;;;;;3.43;2.30;;;21.90;49.80;;;;;;5032015;28;20663;-71
2021/04/27 12:48:29;;;;;;;1.97;1.90;;;22.10;48.40;;;;;;5029600;28;20530;-71
2021/04/27 12:50:58;;;;;;;2.40;2.03;;;22.30;48.70;;;;;;5031999;28;20459;-71
2021/04/27 12:53:36;;;;;;;3.00;1.77;;;22.30;47.90;;;;;;5029617;28;20820;-71
2021/04/27 12:56:09;;;;;;;2.20;1.63;;;22.30;49.10;;;;;;5032006;28;20549;-71
2021/04/27 12:58:36;;;;;;;4.43;2.50;;;22.50;48.40;;;;;;5029272;28;20992;-73
2021/04/27 13:01:05;;;;;;;2.27;1.83;;;22.40;47.80;;;;;;5031851;28;20458;-71